Weather at Delamare Camp Airport

Public forecast

Using degrees Celsius for public forecast. Weather courtesy of forecast.io.

Closest aviation weather report (METAR) to Delamare Camp Airport

Closest report is Nakuru Airport, 7.8 nm (14.4 km) NW.

2024/02/25 10:00 (retrieved 1 hour ago)

HKNK 251000Z 00000KT 9999 BKN029 29/07

Closest aviation forecast (TAF) to Delamare Camp Airport

Closest forecast is Nairobi Wilson Airport, 65.2 nm (120.8 km) SSE.

2024/02/25 06:06 (retrieved 5 hours ago)

TAF HKNW 250500Z 2506/2606 06010KT 9999 SCT028 BECMG 2520/2523 00000KT -RA SCT021 BKN080